createdAt,value
2024-03-10T00:01:02.989Z,74.41
2024-03-10T00:04:26.249Z,74.72
2024-03-10T00:07:29.168Z,74.88
2024-03-10T00:10:35.166Z,74.69
2024-03-10T00:13:38.202Z,74.69
2024-03-10T00:16:41.072Z,74.48
2024-03-10T00:19:44.094Z,74.72
2024-03-10T00:22:49.352Z,74.64
2024-03-10T00:25:54.801Z,74.40
2024-03-10T00:28:57.808Z,74.38
2024-03-10T00:32:00.888Z,74.40
2024-03-10T00:35:06.773Z,74.48
2024-03-10T00:38:09.825Z,74.60
2024-03-10T00:41:12.851Z,74.66
2024-03-10T00:44:15.835Z,74.38
2024-03-10T00:47:19.500Z,74.85
2024-03-10T00:50:22.951Z,74.71
2024-03-10T00:53:25.906Z,74.55
2024-03-10T00:56:28.895Z,74.84
2024-03-10T00:59:31.825Z,74.92
2024-03-10T01:02:35.010Z,74.75
2024-03-10T01:05:38.192Z,74.98
2024-03-10T01:08:41.282Z,74.69
2024-03-10T01:11:44.436Z,74.72
2024-03-10T01:14:47.454Z,74.75
2024-03-10T01:17:50.416Z,74.72
2024-03-10T01:20:53.385Z,74.94
2024-03-10T01:23:56.308Z,74.78
2024-03-10T01:27:00.181Z,75.14
2024-03-10T01:30:03.953Z,75.04
2024-03-10T01:33:07.148Z,75.06
2024-03-10T01:36:10.072Z,75.38
2024-03-10T01:39:12.999Z,75.38
2024-03-10T01:42:16.109Z,75.09
2024-03-10T01:45:18.961Z,75.26
2024-03-10T01:48:21.832Z,75.52
2024-03-10T01:51:25.024Z,75.37
2024-03-10T01:54:29.840Z,75.63
2024-03-10T01:57:32.811Z,75.79
2024-03-10T02:00:39.538Z,75.65
2024-03-10T02:03:44.384Z,76.04
2024-03-10T02:06:47.664Z,76.10
2024-03-10T02:09:51.479Z,76.20
2024-03-10T02:12:54.850Z,76.10
2024-03-10T02:16:01.595Z,76.07
2024-03-10T02:19:04.566Z,75.89
2024-03-10T02:22:09.528Z,76.26
2024-03-10T02:25:13.883Z,75.89
2024-03-10T02:28:35.767Z,75.81
2024-03-10T02:31:57.414Z,75.81
2024-03-10T02:35:18.965Z,75.70
2024-03-10T02:38:40.413Z,75.73
2024-03-10T02:42:02.020Z,75.78
2024-03-10T02:45:23.643Z,75.94
2024-03-10T02:48:26.579Z,75.93
2024-03-10T02:51:29.585Z,76.13
2024-03-10T02:54:32.639Z,76.31
2024-03-10T02:57:35.636Z,76.50
2024-03-10T03:00:39.561Z,76.57
2024-03-10T03:03:42.563Z,76.76
2024-03-10T03:06:45.503Z,76.89
2024-03-10T03:09:48.477Z,76.75
2024-03-10T03:12:53.279Z,76.87
2024-03-10T03:15:59.389Z,76.74
2024-03-10T03:19:03.833Z,77.09
2024-03-10T03:22:08.050Z,76.89
2024-03-10T03:25:12.849Z,76.95
2024-03-10T03:28:16.442Z,76.76
2024-03-10T03:31:19.458Z,76.67
2024-03-10T03:34:22.657Z,76.84
2024-03-10T03:37:25.747Z,76.77
2024-03-10T03:40:28.499Z,76.85
2024-03-10T03:43:32.087Z,76.85
2024-03-10T03:46:35.231Z,76.85
2024-03-10T03:49:38.347Z,76.80
2024-03-10T03:52:42.099Z,76.73
2024-03-10T03:55:46.178Z,76.89
2024-03-10T03:58:50.457Z,77.06
2024-03-10T04:01:53.608Z,76.98
2024-03-10T04:04:57.085Z,77.52
2024-03-10T04:08:00.378Z,77.29
2024-03-10T04:11:03.486Z,77.34
2024-03-10T04:14:08.420Z,77.32
2024-03-10T04:17:11.787Z,77.27
2024-03-10T04:20:14.871Z,77.25
2024-03-10T04:23:18.096Z,77.32
2024-03-10T04:26:24.213Z,77.40
2024-03-10T04:29:27.278Z,77.38
2024-03-10T04:32:31.023Z,77.69
2024-03-10T04:35:34.891Z,77.38
2024-03-10T04:38:39.143Z,77.45
2024-03-10T04:41:42.104Z,77.34
2024-03-10T04:44:51.081Z,77.57
2024-03-10T04:47:54.191Z,77.61
2024-03-10T04:50:57.287Z,77.99
2024-03-10T04:54:00.886Z,78.12
2024-03-10T04:57:03.961Z,78.27
2024-03-10T05:00:11.155Z,78.34
2024-03-10T05:03:14.283Z,78.61
2024-03-10T05:06:17.207Z,78.52
2024-03-10T05:09:20.051Z,78.47
2024-03-10T05:12:24.233Z,78.34
2024-03-10T05:15:27.556Z,78.54
2024-03-10T05:18:30.383Z,78.43
2024-03-10T05:21:33.364Z,78.43
2024-03-10T05:24:39.475Z,78.11
2024-03-10T05:27:42.938Z,78.39
2024-03-10T05:30:46.050Z,78.37
2024-03-10T05:33:49.005Z,78.33
2024-03-10T05:36:51.868Z,78.39
2024-03-10T05:39:54.755Z,78.66
2024-03-10T05:42:57.640Z,78.62
2024-03-10T05:46:00.584Z,78.55
2024-03-10T05:49:04.332Z,78.54
2024-03-10T05:52:08.813Z,78.30
2024-03-10T05:55:11.694Z,78.15
2024-03-10T05:58:15.101Z,78.05
2024-03-10T06:01:24.832Z,77.86
2024-03-10T06:04:27.780Z,77.94
2024-03-10T06:07:30.860Z,78.11
2024-03-10T06:10:33.855Z,77.69
2024-03-10T06:13:38.648Z,77.45
2024-03-10T06:16:41.696Z,77.12
2024-03-10T06:20:16.888Z,77.05
2024-03-10T06:23:38.154Z,77.14
2024-03-10T06:26:43.169Z,77.18
2024-03-10T06:29:47.707Z,77.39
2024-03-10T06:32:51.510Z,77.22
2024-03-10T06:35:54.654Z,77.41
2024-03-10T06:38:58.261Z,77.60
2024-03-10T06:42:01.944Z,77.31
2024-03-10T06:45:07.809Z,77.52
2024-03-10T06:48:14.337Z,77.76
2024-03-10T06:51:17.276Z,77.70
2024-03-10T06:54:20.218Z,77.39
2024-03-10T06:57:23.173Z,76.99
2024-03-10T07:00:26.251Z,76.38
2024-03-10T07:03:29.207Z,76.13
2024-03-10T07:06:32.195Z,76.12
2024-03-10T07:09:36.215Z,76.02
2024-03-10T07:12:39.497Z,75.94
2024-03-10T07:15:42.509Z,75.98
2024-03-10T07:18:45.502Z,75.99
2024-03-10T07:21:48.446Z,76.11
2024-03-10T07:24:51.441Z,75.95
2024-03-10T07:27:54.639Z,75.50
2024-03-10T07:30:57.539Z,76.20
2024-03-10T07:34:01.466Z,75.58
2024-03-10T07:37:05.204Z,75.46
2024-03-10T07:40:16.483Z,75.28
2024-03-10T07:43:19.374Z,75.37
2024-03-10T07:46:23.582Z,75.14
2024-03-10T07:49:26.668Z,75.60
2024-03-10T07:52:29.667Z,75.51
2024-03-10T07:55:32.585Z,75.71
2024-03-10T07:58:35.981Z,75.65
2024-03-10T08:01:39.987Z,75.47
2024-03-10T08:04:42.936Z,75.38
2024-03-10T08:07:50.034Z,75.70
2024-03-10T08:10:53.689Z,75.80
2024-03-10T08:13:57.666Z,75.48
2024-03-10T08:17:00.666Z,74.71
2024-03-10T08:20:09.711Z,74.16
2024-03-10T08:23:12.634Z,74.26
2024-03-10T08:26:15.729Z,73.54
2024-03-10T08:29:19.131Z,73.54
2024-03-10T08:32:22.270Z,72.34
2024-03-10T08:35:26.104Z,71.68
2024-03-10T08:38:29.340Z,71.92
2024-03-10T08:41:32.428Z,71.22
2024-03-10T08:44:35.902Z,71.31
2024-03-10T08:47:40.272Z,70.59
2024-03-10T08:50:44.280Z,70.18
2024-03-10T08:53:47.268Z,69.76
2024-03-10T08:56:50.188Z,69.23
2024-03-10T08:59:53.026Z,69.53
2024-03-10T09:02:56.167Z,68.92
2024-03-10T09:05:59.274Z,68.33
2024-03-10T09:09:02.415Z,67.87
2024-03-10T09:12:05.579Z,68.38
2024-03-10T09:15:08.726Z,68.13
2024-03-10T09:18:11.652Z,67.20
2024-03-10T09:21:15.417Z,67.16
2024-03-10T09:24:19.182Z,66.99
2024-03-10T09:27:22.051Z,67.81
2024-03-10T09:30:25.534Z,67.42
2024-03-10T09:33:28.765Z,68.23
2024-03-10T09:36:32.450Z,67.55
2024-03-10T09:39:35.941Z,66.80
2024-03-10T09:42:39.186Z,67.68
2024-03-10T09:45:44.783Z,68.24
2024-03-10T09:48:48.924Z,68.13
2024-03-10T09:51:54.424Z,68.10
2024-03-10T09:54:58.761Z,67.81
2024-03-10T09:58:07.962Z,67.30
2024-03-10T10:01:15.818Z,66.86
2024-03-10T10:04:20.653Z,67.08
2024-03-10T10:07:25.298Z,66.88
2024-03-10T10:10:28.326Z,66.83
2024-03-10T10:13:32.217Z,66.84
2024-03-10T10:16:45.600Z,66.34
2024-03-10T10:19:52.716Z,65.95
2024-03-10T10:23:01.448Z,66.63
2024-03-10T10:26:10.632Z,66.63
2024-03-10T10:29:13.709Z,66.02
2024-03-10T10:32:21.611Z,66.24
2024-03-10T10:35:24.784Z,64.21
2024-03-10T10:38:27.800Z,63.96
2024-03-10T10:41:30.690Z,63.47
2024-03-10T10:44:33.830Z,64.05
2024-03-10T10:47:37.519Z,63.75
2024-03-10T10:50:44.501Z,64.02
2024-03-10T10:53:48.226Z,63.63
2024-03-10T10:56:57.599Z,64.36
2024-03-10T11:00:00.827Z,64.16
2024-03-10T11:03:18.238Z,63.43
2024-03-10T11:06:21.382Z,62.49
2024-03-10T11:09:33.487Z,62.32
2024-03-10T11:12:36.643Z,62.21
2024-03-10T11:15:39.676Z,62.94
2024-03-10T11:18:43.252Z,62.68
2024-03-10T11:21:48.534Z,62.96
2024-03-10T11:25:09.719Z,61.71
2024-03-10T11:28:14.922Z,61.28
2024-03-10T11:31:21.839Z,61.07
2024-03-10T11:34:25.789Z,60.55
2024-03-10T11:37:30.379Z,61.25
2024-03-10T11:40:34.470Z,61.10
2024-03-10T11:43:38.423Z,61.29
2024-03-10T11:46:41.300Z,60.54
2024-03-10T11:49:44.958Z,60.58
2024-03-10T11:52:47.887Z,59.29
2024-03-10T11:55:58.860Z,59.02
2024-03-10T11:59:04.995Z,59.71
2024-03-10T12:02:09.798Z,60.23
2024-03-10T12:05:16.927Z,60.01
2024-03-10T12:08:20.277Z,60.06
2024-03-10T12:11:26.572Z,60.17
2024-03-10T12:14:29.739Z,60.14
2024-03-10T12:17:32.742Z,59.74
2024-03-10T12:20:35.771Z,60.37
2024-03-10T12:23:39.086Z,60.50
2024-03-10T12:26:44.401Z,60.02
2024-03-10T12:29:49.068Z,60.75
2024-03-10T12:32:53.114Z,60.68
2024-03-10T12:35:56.606Z,60.91
2024-03-10T12:38:59.559Z,60.56
2024-03-10T12:42:02.713Z,60.70
2024-03-10T12:45:06.060Z,61.19
2024-03-10T12:48:09.198Z,60.13
2024-03-10T12:51:12.352Z,59.62
2024-03-10T12:54:15.564Z,59.08
2024-03-10T12:57:20.214Z,58.45
2024-03-10T13:00:26.673Z,58.56
2024-03-10T13:03:34.950Z,58.07
2024-03-10T13:06:39.692Z,58.97
2024-03-10T13:09:42.945Z,58.66
2024-03-10T13:12:45.905Z,58.37
2024-03-10T13:15:49.110Z,58.54
2024-03-10T13:18:53.122Z,57.72
2024-03-10T13:21:56.118Z,58.76
2024-03-10T13:24:59.822Z,58.67
2024-03-10T13:28:02.839Z,58.82
2024-03-10T13:31:06.454Z,58.83
2024-03-10T13:34:09.380Z,58.91
2024-03-10T13:37:12.630Z,59.27
2024-03-10T13:40:18.687Z,59.61
2024-03-10T13:43:21.778Z,59.50
2024-03-10T13:46:24.611Z,59.66
2024-03-10T13:49:28.198Z,59.25
2024-03-10T13:52:31.153Z,59.15
2024-03-10T13:55:34.233Z,58.72
2024-03-10T13:58:37.946Z,58.91
2024-03-10T14:01:40.990Z,59.01
2024-03-10T14:04:44.638Z,58.32
2024-03-10T14:07:48.815Z,58.04
2024-03-10T14:10:52.254Z,57.94
2024-03-10T14:13:55.314Z,58.37
2024-03-10T14:16:58.645Z,58.38
2024-03-10T14:20:01.771Z,58.41
2024-03-10T14:23:04.907Z,58.71
2024-03-10T14:26:07.916Z,58.68
2024-03-10T14:29:11.411Z,58.32
2024-03-10T14:32:14.339Z,58.47
2024-03-10T14:35:18.122Z,58.34
2024-03-10T14:38:21.001Z,58.65
2024-03-10T14:41:24.036Z,58.94
2024-03-10T14:44:27.104Z,59.32
2024-03-10T14:47:30.165Z,59.66
2024-03-10T14:50:34.140Z,59.54
2024-03-10T14:53:37.349Z,59.38
2024-03-10T14:56:40.461Z,59.71
2024-03-10T14:59:43.593Z,59.17
2024-03-10T15:02:47.254Z,59.00
2024-03-10T15:05:50.863Z,59.25
2024-03-10T15:08:58.661Z,58.93
2024-03-10T15:12:01.791Z,58.66
2024-03-10T15:15:04.926Z,58.80
2024-03-10T15:18:10.595Z,58.68
2024-03-10T15:21:13.511Z,58.43
2024-03-10T15:24:16.600Z,58.60
2024-03-10T15:27:19.584Z,58.76
2024-03-10T15:30:22.488Z,59.11
2024-03-10T15:33:26.600Z,59.16
2024-03-10T15:36:29.635Z,59.44
2024-03-10T15:39:34.075Z,59.21
2024-03-10T15:42:43.820Z,59.22
2024-03-10T15:45:48.315Z,59.11
2024-03-10T15:48:51.759Z,59.39
2024-03-10T15:51:54.589Z,59.37
2024-03-10T15:54:57.906Z,59.56
2024-03-10T15:58:00.808Z,59.41
2024-03-10T16:01:03.857Z,59.59
2024-03-10T16:04:09.537Z,59.87
2024-03-10T16:07:12.423Z,59.60
2024-03-10T16:10:15.664Z,60.08
2024-03-10T16:13:27.043Z,59.84
2024-03-10T16:16:30.549Z,59.99
2024-03-10T16:19:33.553Z,59.98
2024-03-10T16:22:36.417Z,60.24
2024-03-10T16:25:40.271Z,60.27
2024-03-10T16:28:43.600Z,60.25
2024-03-10T16:31:47.840Z,60.42
2024-03-10T16:34:53.140Z,60.86
2024-03-10T16:37:57.988Z,61.12
2024-03-10T16:41:01.065Z,61.15
2024-03-10T16:44:04.224Z,61.30
2024-03-10T16:47:08.946Z,61.21
2024-03-10T16:50:12.038Z,61.10
2024-03-10T16:53:16.432Z,60.91
2024-03-10T16:56:22.366Z,61.05
2024-03-10T16:59:25.255Z,60.85
2024-03-10T17:02:28.374Z,60.92
2024-03-10T17:05:32.716Z,60.76
2024-03-10T17:08:37.549Z,60.98
2024-03-10T17:11:40.512Z,61.05
2024-03-10T17:14:43.906Z,61.18
2024-03-10T17:17:48.499Z,61.38
2024-03-10T17:20:54.420Z,61.72
2024-03-10T17:23:57.244Z,61.63
2024-03-10T17:27:01.122Z,61.69
2024-03-10T17:30:04.615Z,61.99
2024-03-10T17:33:07.992Z,62.18
2024-03-10T17:36:11.859Z,62.39
2024-03-10T17:39:15.687Z,62.44
2024-03-10T17:42:18.620Z,62.78
2024-03-10T17:45:21.614Z,63.24
2024-03-10T17:48:24.995Z,63.33
2024-03-10T17:51:31.450Z,63.61
2024-03-10T17:54:35.890Z,63.97
2024-03-10T17:57:38.936Z,64.08
2024-03-10T18:00:42.014Z,64.90
2024-03-10T18:03:48.907Z,65.10
2024-03-10T18:06:52.470Z,65.50
2024-03-10T18:09:55.571Z,66.03
2024-03-10T18:12:58.495Z,66.59
2024-03-10T18:16:01.375Z,66.66
2024-03-10T18:19:04.338Z,66.90
2024-03-10T18:22:07.282Z,67.16
2024-03-10T18:25:12.074Z,67.47
2024-03-10T18:28:15.509Z,67.54
2024-03-10T18:31:20.695Z,67.93
2024-03-10T18:34:25.508Z,67.54
2024-03-10T18:37:28.478Z,67.71
2024-03-10T18:40:31.275Z,67.90
2024-03-10T18:43:34.261Z,67.96
2024-03-10T18:46:37.710Z,67.99
2024-03-10T18:49:41.285Z,68.37
2024-03-10T18:52:44.285Z,68.48
2024-03-10T18:55:47.173Z,68.43
2024-03-10T18:58:50.257Z,68.46
2024-03-10T19:01:55.144Z,68.32
2024-03-10T19:04:59.327Z,68.22
2024-03-10T19:08:05.815Z,68.52
2024-03-10T19:11:09.862Z,68.31
2024-03-10T19:14:13.471Z,68.50
2024-03-10T19:17:16.597Z,68.41
2024-03-10T19:20:25.640Z,68.21
2024-03-10T19:23:31.484Z,68.09
2024-03-10T19:26:35.542Z,67.74
2024-03-10T19:29:38.568Z,67.97
2024-03-10T19:32:42.314Z,67.86
2024-03-10T19:35:45.363Z,67.92
2024-03-10T19:38:48.282Z,67.91
2024-03-10T19:41:51.201Z,68.09
2024-03-10T19:44:54.137Z,68.07
2024-03-10T19:47:57.094Z,68.23
2024-03-10T19:51:00.215Z,68.02
2024-03-10T19:54:03.955Z,67.99
2024-03-10T19:57:06.985Z,68.09
2024-03-10T20:00:34.949Z,68.09
2024-03-10T20:03:52.996Z,67.85
2024-03-10T20:06:58.258Z,68.21
2024-03-10T20:10:01.211Z,67.83
2024-03-10T20:13:04.284Z,67.95
2024-03-10T20:16:09.230Z,67.47
2024-03-10T20:19:12.382Z,67.63
2024-03-10T20:22:15.306Z,67.71
2024-03-10T20:25:19.726Z,67.90
2024-03-10T20:28:23.323Z,68.38
2024-03-10T20:31:26.307Z,68.36
2024-03-10T20:34:32.158Z,68.60
2024-03-10T20:37:36.761Z,68.67
2024-03-10T20:40:39.728Z,69.16
2024-03-10T20:43:43.361Z,69.45
2024-03-10T20:46:46.287Z,69.48
2024-03-10T20:49:49.241Z,69.21
2024-03-10T20:52:53.357Z,69.71
2024-03-10T20:55:56.723Z,70.07
2024-03-10T20:58:59.783Z,70.25
2024-03-10T21:02:02.829Z,70.37
2024-03-10T21:05:05.841Z,70.58
2024-03-10T21:08:08.862Z,71.18
2024-03-10T21:11:12.712Z,71.60
2024-03-10T21:14:15.661Z,71.81
2024-03-10T21:17:18.571Z,71.92
2024-03-10T21:20:23.429Z,72.25
2024-03-10T21:23:27.054Z,72.43
2024-03-10T21:26:30.045Z,72.40
2024-03-10T21:29:32.898Z,72.76
2024-03-10T21:32:35.955Z,73.10
2024-03-10T21:35:39.739Z,73.91
2024-03-10T21:38:42.995Z,73.88
2024-03-10T21:41:45.909Z,73.96
2024-03-10T21:44:49.062Z,74.31
2024-03-10T21:47:52.168Z,74.50
2024-03-10T21:50:55.869Z,74.36
2024-03-10T21:53:58.734Z,74.53
2024-03-10T21:57:02.033Z,74.66
2024-03-10T22:00:16.329Z,74.96
2024-03-10T22:03:20.096Z,74.93
2024-03-10T22:06:23.115Z,74.96
2024-03-10T22:09:26.320Z,74.58
2024-03-10T22:12:29.767Z,74.68
2024-03-10T22:15:32.731Z,74.74
2024-03-10T22:18:35.715Z,74.61
2024-03-10T22:21:40.373Z,74.36
2024-03-10T22:24:43.252Z,74.74
2024-03-10T22:27:46.399Z,74.84
2024-03-10T22:30:49.207Z,74.72
2024-03-10T22:33:52.478Z,74.75
2024-03-10T22:36:55.344Z,74.65
2024-03-10T22:39:58.797Z,74.64
2024-03-10T22:43:01.844Z,74.49
2024-03-10T22:46:04.823Z,74.81
2024-03-10T22:49:08.432Z,74.80
2024-03-10T22:52:12.063Z,74.90
2024-03-10T22:55:16.436Z,74.73
2024-03-10T22:58:19.601Z,74.57
2024-03-10T23:01:22.817Z,74.77
2024-03-10T23:04:25.789Z,75.02
2024-03-10T23:07:34.736Z,75.08
2024-03-10T23:10:42.597Z,75.09
2024-03-10T23:13:46.051Z,75.17
2024-03-10T23:16:50.003Z,75.22
2024-03-10T23:19:53.014Z,75.25
2024-03-10T23:23:00.923Z,75.38
2024-03-10T23:26:04.261Z,75.34
2024-03-10T23:29:07.155Z,75.46
2024-03-10T23:32:10.678Z,75.55
2024-03-10T23:35:14.326Z,75.60
2024-03-10T23:38:17.186Z,75.47
2024-03-10T23:41:21.963Z,75.47
2024-03-10T23:44:25.306Z,75.52
2024-03-10T23:47:28.612Z,75.35
2024-03-10T23:50:32.156Z,75.26
2024-03-10T23:53:35.177Z,75.44
2024-03-10T23:56:40.271Z,75.43
2024-03-10T23:59:43.179Z,75.48
